sensor_id;sensor_type;location;lat;lon;timestamp;P1;durP1;ratioP1;P2;durP2;ratioP2
21671;SDS011;10997;52.242;8.168;2023-09-18T00:03:38;13.45;;;9.25;;
21671;SDS011;10997;52.242;8.168;2023-09-18T00:08:39;10.32;;;9.15;;
21671;SDS011;10997;52.242;8.168;2023-09-18T00:13:40;14.60;;;10.18;;
21671;SDS011;10997;52.242;8.168;2023-09-18T00:18:40;14.75;;;11.68;;
21671;SDS011;10997;52.242;8.168;2023-09-18T00:23:42;16.17;;;11.27;;
21671;SDS011;10997;52.242;8.168;2023-09-18T00:28:42;13.07;;;10.68;;
21671;SDS011;10997;52.242;8.168;2023-09-18T00:33:43;15.82;;;11.10;;
21671;SDS011;10997;52.242;8.168;2023-09-18T00:38:43;12.52;;;11.02;;
21671;SDS011;10997;52.242;8.168;2023-09-18T00:43:44;13.82;;;11.23;;
21671;SDS011;10997;52.242;8.168;2023-09-18T00:48:45;15.10;;;11.85;;
21671;SDS011;10997;52.242;8.168;2023-09-18T00:53:47;14.80;;;11.82;;
21671;SDS011;10997;52.242;8.168;2023-09-18T00:58:48;15.02;;;12.05;;
21671;SDS011;10997;52.242;8.168;2023-09-18T01:03:50;12.95;;;11.38;;
21671;SDS011;10997;52.242;8.168;2023-09-18T01:08:53;15.30;;;12.00;;
21671;SDS011;10997;52.242;8.168;2023-09-18T01:13:54;12.68;;;11.32;;
21671;SDS011;10997;52.242;8.168;2023-09-18T01:19:03;15.50;;;10.95;;
21671;SDS011;10997;52.242;8.168;2023-09-18T01:24:04;15.48;;;11.18;;
21671;SDS011;10997;52.242;8.168;2023-09-18T01:29:05;15.18;;;11.23;;
21671;SDS011;10997;52.242;8.168;2023-09-18T01:34:05;15.80;;;11.95;;
21671;SDS011;10997;52.242;8.168;2023-09-18T01:39:06;14.57;;;11.32;;
21671;SDS011;10997;52.242;8.168;2023-09-18T01:44:10;13.30;;;11.82;;
21671;SDS011;10997;52.242;8.168;2023-09-18T01:49:10;14.40;;;12.07;;
21671;SDS011;10997;52.242;8.168;2023-09-18T01:54:11;16.58;;;11.93;;
21671;SDS011;10997;52.242;8.168;2023-09-18T01:59:12;18.10;;;11.95;;
21671;SDS011;10997;52.242;8.168;2023-09-18T02:04:12;14.65;;;11.23;;
21671;SDS011;10997;52.242;8.168;2023-09-18T02:09:13;15.73;;;11.57;;
21671;SDS011;10997;52.242;8.168;2023-09-18T02:14:14;14.43;;;11.20;;
21671;SDS011;10997;52.242;8.168;2023-09-18T02:19:15;15.27;;;10.38;;
21671;SDS011;10997;52.242;8.168;2023-09-18T02:24:17;15.55;;;11.18;;
21671;SDS011;10997;52.242;8.168;2023-09-18T02:29:17;12.80;;;10.32;;
21671;SDS011;10997;52.242;8.168;2023-09-18T02:34:18;13.40;;;10.23;;
21671;SDS011;10997;52.242;8.168;2023-09-18T02:39:19;14.10;;;10.45;;
21671;SDS011;10997;52.242;8.168;2023-09-18T02:44:19;12.95;;;10.57;;
21671;SDS011;10997;52.242;8.168;2023-09-18T02:49:20;14.80;;;10.68;;
21671;SDS011;10997;52.242;8.168;2023-09-18T02:54:20;16.95;;;11.15;;
21671;SDS011;10997;52.242;8.168;2023-09-18T02:59:21;12.13;;;10.50;;
21671;SDS011;10997;52.242;8.168;2023-09-18T03:04:22;16.55;;;11.45;;
21671;SDS011;10997;52.242;8.168;2023-09-18T03:09:22;15.70;;;11.68;;
21671;SDS011;10997;52.242;8.168;2023-09-18T03:14:23;15.10;;;10.85;;
21671;SDS011;10997;52.242;8.168;2023-09-18T03:19:23;17.73;;;12.00;;
21671;SDS011;10997;52.242;8.168;2023-09-18T03:24:24;17.45;;;11.38;;
21671;SDS011;10997;52.242;8.168;2023-09-18T03:29:25;16.25;;;11.35;;
21671;SDS011;10997;52.242;8.168;2023-09-18T03:34:26;13.45;;;10.02;;
21671;SDS011;10997;52.242;8.168;2023-09-18T03:39:27;14.05;;;10.93;;
21671;SDS011;10997;52.242;8.168;2023-09-18T03:44:27;16.55;;;11.07;;
21671;SDS011;10997;52.242;8.168;2023-09-18T03:49:28;14.90;;;11.35;;
21671;SDS011;10997;52.242;8.168;2023-09-18T03:54:28;14.75;;;10.55;;
21671;SDS011;10997;52.242;8.168;2023-09-18T03:59:29;12.73;;;10.18;;
21671;SDS011;10997;52.242;8.168;2023-09-18T04:04:36;16.50;;;11.40;;
21671;SDS011;10997;52.242;8.168;2023-09-18T04:09:37;14.63;;;10.70;;
21671;SDS011;10997;52.242;8.168;2023-09-18T04:14:38;12.70;;;9.90;;
21671;SDS011;10997;52.242;8.168;2023-09-18T04:19:40;13.43;;;9.98;;
21671;SDS011;10997;52.242;8.168;2023-09-18T04:24:40;13.50;;;9.88;;
21671;SDS011;10997;52.242;8.168;2023-09-18T04:29:41;12.05;;;10.10;;
21671;SDS011;10997;52.242;8.168;2023-09-18T04:34:41;13.30;;;9.63;;
21671;SDS011;10997;52.242;8.168;2023-09-18T04:39:42;12.65;;;9.50;;
21671;SDS011;10997;52.242;8.168;2023-09-18T04:44:43;16.52;;;10.35;;
21671;SDS011;10997;52.242;8.168;2023-09-18T04:49:43;13.18;;;9.73;;
21671;SDS011;10997;52.242;8.168;2023-09-18T04:54:47;14.30;;;9.35;;
21671;SDS011;10997;52.242;8.168;2023-09-18T04:59:48;14.88;;;9.00;;
21671;SDS011;10997;52.242;8.168;2023-09-18T05:04:49;12.77;;;9.73;;
21671;SDS011;10997;52.242;8.168;2023-09-18T05:09:50;13.20;;;9.20;;
21671;SDS011;10997;52.242;8.168;2023-09-18T05:14:51;11.32;;;9.90;;
21671;SDS011;10997;52.242;8.168;2023-09-18T05:19:52;12.63;;;8.82;;
21671;SDS011;10997;52.242;8.168;2023-09-18T05:24:52;11.82;;;8.75;;
21671;SDS011;10997;52.242;8.168;2023-09-18T05:29:53;14.38;;;8.65;;
21671;SDS011;10997;52.242;8.168;2023-09-18T05:34:53;10.80;;;8.43;;
21671;SDS011;10997;52.242;8.168;2023-09-18T05:39:54;12.52;;;7.90;;
21671;SDS011;10997;52.242;8.168;2023-09-18T05:44:55;14.07;;;8.50;;
21671;SDS011;10997;52.242;8.168;2023-09-18T05:49:56;11.63;;;7.80;;
21671;SDS011;10997;52.242;8.168;2023-09-18T05:54:57;13.20;;;7.65;;
21671;SDS011;10997;52.242;8.168;2023-09-18T05:59:57;11.80;;;7.15;;
21671;SDS011;10997;52.242;8.168;2023-09-18T06:04:58;13.60;;;6.68;;
21671;SDS011;10997;52.242;8.168;2023-09-18T06:10:00;9.60;;;6.15;;
21671;SDS011;10997;52.242;8.168;2023-09-18T06:15:00;10.27;;;5.90;;
21671;SDS011;10997;52.242;8.168;2023-09-18T06:20:01;9.15;;;5.80;;
21671;SDS011;10997;52.242;8.168;2023-09-18T06:25:02;10.40;;;6.00;;
21671;SDS011;10997;52.242;8.168;2023-09-18T06:30:03;8.05;;;5.63;;
21671;SDS011;10997;52.242;8.168;2023-09-18T06:35:04;8.45;;;5.97;;
21671;SDS011;10997;52.242;8.168;2023-09-18T06:40:05;13.13;;;5.80;;
21671;SDS011;10997;52.242;8.168;2023-09-18T06:45:07;11.95;;;6.03;;
21671;SDS011;10997;52.242;8.168;2023-09-18T06:50:07;10.10;;;5.88;;
21671;SDS011;10997;52.242;8.168;2023-09-18T06:55:09;8.93;;;4.97;;
21671;SDS011;10997;52.242;8.168;2023-09-18T07:00:10;11.15;;;5.32;;
21671;SDS011;10997;52.242;8.168;2023-09-18T07:05:11;8.93;;;5.10;;
21671;SDS011;10997;52.242;8.168;2023-09-18T07:10:12;12.27;;;4.85;;
21671;SDS011;10997;52.242;8.168;2023-09-18T07:15:12;12.98;;;4.93;;
21671;SDS011;10997;52.242;8.168;2023-09-18T07:20:13;8.93;;;4.80;;
21671;SDS011;10997;52.242;8.168;2023-09-18T07:25:14;11.00;;;4.55;;
21671;SDS011;10997;52.242;8.168;2023-09-18T07:30:15;11.38;;;5.10;;
21671;SDS011;10997;52.242;8.168;2023-09-18T07:35:16;10.60;;;4.43;;
21671;SDS011;10997;52.242;8.168;2023-09-18T07:40:17;16.05;;;4.82;;
21671;SDS011;10997;52.242;8.168;2023-09-18T07:45:18;16.17;;;4.45;;
21671;SDS011;10997;52.242;8.168;2023-09-18T07:50:18;13.15;;;4.32;;
21671;SDS011;10997;52.242;8.168;2023-09-18T07:55:19;11.50;;;4.28;;
21671;SDS011;10997;52.242;8.168;2023-09-18T08:00:19;13.15;;;4.15;;
21671;SDS011;10997;52.242;8.168;2023-09-18T08:05:22;11.85;;;4.55;;
21671;SDS011;10997;52.242;8.168;2023-09-18T08:10:23;17.15;;;4.50;;
21671;SDS011;10997;52.242;8.168;2023-09-18T08:15:23;13.63;;;4.50;;
21671;SDS011;10997;52.242;8.168;2023-09-18T08:20:25;13.05;;;3.65;;
21671;SDS011;10997;52.242;8.168;2023-09-18T08:25:26;10.90;;;3.42;;
21671;SDS011;10997;52.242;8.168;2023-09-18T08:30:27;12.27;;;3.72;;
21671;SDS011;10997;52.242;8.168;2023-09-18T08:35:27;11.10;;;3.50;;
21671;SDS011;10997;52.242;8.168;2023-09-18T08:40:30;8.65;;;2.83;;
21671;SDS011;10997;52.242;8.168;2023-09-18T08:45:33;12.05;;;3.00;;
21671;SDS011;10997;52.242;8.168;2023-09-18T08:50:35;11.13;;;3.20;;
21671;SDS011;10997;52.242;8.168;2023-09-18T08:55:37;10.30;;;2.90;;
21671;SDS011;10997;52.242;8.168;2023-09-18T09:00:38;14.20;;;3.22;;
21671;SDS011;10997;52.242;8.168;2023-09-18T09:05:39;14.35;;;3.28;;
21671;SDS011;10997;52.242;8.168;2023-09-18T09:10:39;9.57;;;2.75;;
21671;SDS011;10997;52.242;8.168;2023-09-18T09:15:44;12.30;;;3.13;;
21671;SDS011;10997;52.242;8.168;2023-09-18T09:21:00;8.73;;;2.90;;
21671;SDS011;10997;52.242;8.168;2023-09-18T09:26:14;10.50;;;2.90;;
21671;SDS011;10997;52.242;8.168;2023-09-18T09:31:26;16.35;;;3.40;;
21671;SDS011;10997;52.242;8.168;2023-09-18T09:36:28;8.00;;;2.90;;
21671;SDS011;10997;52.242;8.168;2023-09-18T09:41:28;9.38;;;3.20;;
21671;SDS011;10997;52.242;8.168;2023-09-18T09:46:31;11.50;;;2.85;;
21671;SDS011;10997;52.242;8.168;2023-09-18T09:51:32;9.68;;;3.47;;
21671;SDS011;10997;52.242;8.168;2023-09-18T09:56:44;8.65;;;2.72;;
21671;SDS011;10997;52.242;8.168;2023-09-18T10:01:48;10.43;;;2.90;;
21671;SDS011;10997;52.242;8.168;2023-09-18T10:06:56;12.15;;;3.10;;
21671;SDS011;10997;52.242;8.168;2023-09-18T10:12:03;8.40;;;2.80;;
21671;SDS011;10997;52.242;8.168;2023-09-18T10:17:17;8.13;;;2.92;;
21671;SDS011;10997;52.242;8.168;2023-09-18T10:22:32;8.35;;;3.00;;
21671;SDS011;10997;52.242;8.168;2023-09-18T10:27:38;9.35;;;2.80;;
21671;SDS011;10997;52.242;8.168;2023-09-18T10:32:40;8.65;;;2.58;;
21671;SDS011;10997;52.242;8.168;2023-09-18T10:37:42;6.93;;;2.40;;
21671;SDS011;10997;52.242;8.168;2023-09-18T10:42:45;10.95;;;2.65;;
21671;SDS011;10997;52.242;8.168;2023-09-18T10:47:48;5.90;;;2.25;;
21671;SDS011;10997;52.242;8.168;2023-09-18T10:52:49;9.00;;;2.53;;
21671;SDS011;10997;52.242;8.168;2023-09-18T10:57:54;5.40;;;2.40;;
21671;SDS011;10997;52.242;8.168;2023-09-18T11:03:09;6.03;;;2.40;;
21671;SDS011;10997;52.242;8.168;2023-09-18T11:08:42;5.10;;;2.00;;
21671;SDS011;10997;52.242;8.168;2023-09-18T11:13:51;6.57;;;2.10;;
21671;SDS011;10997;52.242;8.168;2023-09-18T11:23:59;5.80;;;2.35;;
21671;SDS011;10997;52.242;8.168;2023-09-18T11:29:06;5.82;;;2.05;;
21671;SDS011;10997;52.242;8.168;2023-09-18T11:39:35;4.65;;;2.00;;
21671;SDS011;10997;52.242;8.168;2023-09-18T11:44:38;11.85;;;2.15;;
21671;SDS011;10997;52.242;8.168;2023-09-18T11:49:46;4.07;;;1.63;;
21671;SDS011;10997;52.242;8.168;2023-09-18T11:54:57;7.93;;;1.70;;
21671;SDS011;10997;52.242;8.168;2023-09-18T11:59:59;5.20;;;2.20;;
21671;SDS011;10997;52.242;8.168;2023-09-18T12:10:17;4.63;;;2.00;;
21671;SDS011;10997;52.242;8.168;2023-09-18T12:15:20;4.95;;;1.90;;
21671;SDS011;10997;52.242;8.168;2023-09-18T12:20:22;4.28;;;1.65;;
21671;SDS011;10997;52.242;8.168;2023-09-18T12:25:22;3.15;;;1.50;;
21671;SDS011;10997;52.242;8.168;2023-09-18T12:30:23;4.03;;;1.70;;
21671;SDS011;10997;52.242;8.168;2023-09-18T12:35:25;6.20;;;1.80;;
21671;SDS011;10997;52.242;8.168;2023-09-18T12:40:30;5.53;;;1.70;;
21671;SDS011;10997;52.242;8.168;2023-09-18T12:45:34;7.90;;;1.83;;
21671;SDS011;10997;52.242;8.168;2023-09-18T12:50:35;7.00;;;2.47;;
21671;SDS011;10997;52.242;8.168;2023-09-18T12:55:35;4.97;;;1.80;;
21671;SDS011;10997;52.242;8.168;2023-09-18T13:00:37;6.57;;;1.80;;
21671;SDS011;10997;52.242;8.168;2023-09-18T13:05:45;4.45;;;1.73;;
21671;SDS011;10997;52.242;8.168;2023-09-18T13:10:47;5.90;;;2.00;;
21671;SDS011;10997;52.242;8.168;2023-09-18T13:15:52;4.70;;;1.60;;
21671;SDS011;10997;52.242;8.168;2023-09-18T13:20:59;8.43;;;2.00;;
21671;SDS011;10997;52.242;8.168;2023-09-18T13:26:01;6.38;;;2.00;;
21671;SDS011;10997;52.242;8.168;2023-09-18T13:31:04;4.60;;;1.70;;
21671;SDS011;10997;52.242;8.168;2023-09-18T13:36:06;5.50;;;1.85;;
21671;SDS011;10997;52.242;8.168;2023-09-18T13:41:07;4.07;;;1.88;;
21671;SDS011;10997;52.242;8.168;2023-09-18T13:46:07;5.97;;;1.88;;
21671;SDS011;10997;52.242;8.168;2023-09-18T13:51:08;5.53;;;2.22;;
21671;SDS011;10997;52.242;8.168;2023-09-18T13:56:09;6.63;;;1.90;;
21671;SDS011;10997;52.242;8.168;2023-09-18T14:01:10;3.88;;;1.75;;
21671;SDS011;10997;52.242;8.168;2023-09-18T14:06:11;8.07;;;1.85;;
21671;SDS011;10997;52.242;8.168;2023-09-18T14:11:11;5.57;;;2.10;;
21671;SDS011;10997;52.242;8.168;2023-09-18T14:16:12;3.90;;;2.10;;
21671;SDS011;10997;52.242;8.168;2023-09-18T14:21:14;4.60;;;2.13;;
21671;SDS011;10997;52.242;8.168;2023-09-18T14:26:15;8.35;;;2.03;;
21671;SDS011;10997;52.242;8.168;2023-09-18T14:31:15;5.40;;;2.28;;
21671;SDS011;10997;52.242;8.168;2023-09-18T14:36:16;4.20;;;2.00;;
21671;SDS011;10997;52.242;8.168;2023-09-18T14:41:17;5.80;;;2.00;;
21671;SDS011;10997;52.242;8.168;2023-09-18T14:46:21;6.35;;;2.03;;
21671;SDS011;10997;52.242;8.168;2023-09-18T14:51:22;5.18;;;1.85;;
21671;SDS011;10997;52.242;8.168;2023-09-18T14:56:23;6.25;;;1.70;;
21671;SDS011;10997;52.242;8.168;2023-09-18T15:01:24;5.88;;;2.20;;
21671;SDS011;10997;52.242;8.168;2023-09-18T15:06:25;4.15;;;1.80;;
21671;SDS011;10997;52.242;8.168;2023-09-18T15:11:27;4.25;;;1.92;;
21671;SDS011;10997;52.242;8.168;2023-09-18T15:16:27;4.57;;;2.00;;
21671;SDS011;10997;52.242;8.168;2023-09-18T15:21:30;5.32;;;2.00;;
21671;SDS011;10997;52.242;8.168;2023-09-18T15:26:30;5.00;;;2.30;;
21671;SDS011;10997;52.242;8.168;2023-09-18T15:31:31;6.50;;;1.95;;
21671;SDS011;10997;52.242;8.168;2023-09-18T15:36:31;6.18;;;2.38;;
21671;SDS011;10997;52.242;8.168;2023-09-18T15:41:32;4.47;;;1.90;;
21671;SDS011;10997;52.242;8.168;2023-09-18T15:46:32;8.48;;;2.08;;
21671;SDS011;10997;52.242;8.168;2023-09-18T15:51:34;4.30;;;1.98;;
21671;SDS011;10997;52.242;8.168;2023-09-18T15:56:35;5.15;;;2.20;;
21671;SDS011;10997;52.242;8.168;2023-09-18T16:01:36;3.58;;;1.92;;
21671;SDS011;10997;52.242;8.168;2023-09-18T16:06:38;3.95;;;1.95;;
21671;SDS011;10997;52.242;8.168;2023-09-18T16:11:39;4.72;;;1.98;;
21671;SDS011;10997;52.242;8.168;2023-09-18T16:16:39;3.85;;;2.17;;
21671;SDS011;10997;52.242;8.168;2023-09-18T16:21:40;4.47;;;1.88;;
21671;SDS011;10997;52.242;8.168;2023-09-18T16:26:40;3.58;;;2.17;;
21671;SDS011;10997;52.242;8.168;2023-09-18T16:31:41;3.72;;;1.83;;
21671;SDS011;10997;52.242;8.168;2023-09-18T16:36:42;4.55;;;1.90;;
21671;SDS011;10997;52.242;8.168;2023-09-18T16:41:43;3.17;;;2.10;;
21671;SDS011;10997;52.242;8.168;2023-09-18T16:46:44;5.07;;;2.10;;
21671;SDS011;10997;52.242;8.168;2023-09-18T16:51:44;5.63;;;1.80;;
21671;SDS011;10997;52.242;8.168;2023-09-18T16:56:45;4.30;;;2.08;;
21671;SDS011;10997;52.242;8.168;2023-09-18T17:01:45;4.85;;;2.00;;
21671;SDS011;10997;52.242;8.168;2023-09-18T17:06:46;4.75;;;1.80;;
21671;SDS011;10997;52.242;8.168;2023-09-18T17:11:46;4.95;;;2.05;;
21671;SDS011;10997;52.242;8.168;2023-09-18T17:16:47;6.72;;;1.92;;
21671;SDS011;10997;52.242;8.168;2023-09-18T17:21:48;4.78;;;1.90;;
21671;SDS011;10997;52.242;8.168;2023-09-18T17:26:48;3.33;;;2.00;;
21671;SDS011;10997;52.242;8.168;2023-09-18T17:31:49;4.72;;;2.05;;
21671;SDS011;10997;52.242;8.168;2023-09-18T17:36:49;6.50;;;1.92;;
21671;SDS011;10997;52.242;8.168;2023-09-18T17:41:50;2.72;;;1.50;;
21671;SDS011;10997;52.242;8.168;2023-09-18T17:46:52;5.32;;;1.65;;
21671;SDS011;10997;52.242;8.168;2023-09-18T17:51:52;5.40;;;1.75;;
21671;SDS011;10997;52.242;8.168;2023-09-18T17:56:54;4.55;;;1.70;;
21671;SDS011;10997;52.242;8.168;2023-09-18T18:01:55;4.07;;;2.00;;
21671;SDS011;10997;52.242;8.168;2023-09-18T18:06:55;4.03;;;1.70;;
21671;SDS011;10997;52.242;8.168;2023-09-18T18:11:56;4.03;;;1.80;;
21671;SDS011;10997;52.242;8.168;2023-09-18T18:16:57;2.10;;;1.60;;
21671;SDS011;10997;52.242;8.168;2023-09-18T18:21:59;4.95;;;1.95;;
21671;SDS011;10997;52.242;8.168;2023-09-18T18:27:00;6.90;;;1.40;;
21671;SDS011;10997;52.242;8.168;2023-09-18T18:32:00;3.65;;;1.20;;
21671;SDS011;10997;52.242;8.168;2023-09-18T18:37:02;2.42;;;1.00;;
21671;SDS011;10997;52.242;8.168;2023-09-18T18:42:03;5.13;;;0.98;;
21671;SDS011;10997;52.242;8.168;2023-09-18T18:47:04;4.35;;;1.30;;
21671;SDS011;10997;52.242;8.168;2023-09-18T18:52:05;4.32;;;1.20;;
21671;SDS011;10997;52.242;8.168;2023-09-18T18:57:06;4.47;;;1.27;;
21671;SDS011;10997;52.242;8.168;2023-09-18T19:02:07;1.88;;;1.40;;
21671;SDS011;10997;52.242;8.168;2023-09-18T19:07:08;4.55;;;1.70;;
21671;SDS011;10997;52.242;8.168;2023-09-18T19:12:11;2.13;;;1.10;;
21671;SDS011;10997;52.242;8.168;2023-09-18T19:17:12;2.70;;;1.13;;
21671;SDS011;10997;52.242;8.168;2023-09-18T19:22:12;2.58;;;1.00;;
21671;SDS011;10997;52.242;8.168;2023-09-18T19:27:13;1.63;;;0.90;;
21671;SDS011;10997;52.242;8.168;2023-09-18T19:32:13;3.53;;;1.15;;
21671;SDS011;10997;52.242;8.168;2023-09-18T19:37:14;3.80;;;1.40;;
21671;SDS011;10997;52.242;8.168;2023-09-18T19:42:15;4.72;;;1.23;;
21671;SDS011;10997;52.242;8.168;2023-09-18T19:47:15;3.78;;;1.23;;
21671;SDS011;10997;52.242;8.168;2023-09-18T19:52:17;2.83;;;1.33;;
21671;SDS011;10997;52.242;8.168;2023-09-18T19:57:18;1.80;;;1.17;;
21671;SDS011;10997;52.242;8.168;2023-09-18T20:02:18;3.40;;;1.38;;
21671;SDS011;10997;52.242;8.168;2023-09-18T20:07:19;2.20;;;1.30;;
21671;SDS011;10997;52.242;8.168;2023-09-18T20:12:19;3.42;;;1.60;;
21671;SDS011;10997;52.242;8.168;2023-09-18T20:17:20;4.03;;;2.00;;
21671;SDS011;10997;52.242;8.168;2023-09-18T20:22:21;6.22;;;2.30;;
21671;SDS011;10997;52.242;8.168;2023-09-18T20:27:22;5.70;;;2.40;;
21671;SDS011;10997;52.242;8.168;2023-09-18T20:32:22;4.22;;;2.30;;
21671;SDS011;10997;52.242;8.168;2023-09-18T20:37:23;7.40;;;2.35;;
21671;SDS011;10997;52.242;8.168;2023-09-18T20:42:23;5.22;;;2.30;;
21671;SDS011;10997;52.242;8.168;2023-09-18T20:47:24;6.60;;;2.92;;
21671;SDS011;10997;52.242;8.168;2023-09-18T20:52:25;8.35;;;3.20;;
21671;SDS011;10997;52.242;8.168;2023-09-18T20:57:26;4.68;;;3.53;;
21671;SDS011;10997;52.242;8.168;2023-09-18T21:02:26;6.85;;;4.00;;
21671;SDS011;10997;52.242;8.168;2023-09-18T21:07:28;8.57;;;4.00;;
21671;SDS011;10997;52.242;8.168;2023-09-18T21:12:29;5.70;;;3.58;;
21671;SDS011;10997;52.242;8.168;2023-09-18T21:17:29;5.65;;;3.80;;
21671;SDS011;10997;52.242;8.168;2023-09-18T21:22:31;7.97;;;3.88;;
21671;SDS011;10997;52.242;8.168;2023-09-18T21:27:33;9.95;;;4.13;;
21671;SDS011;10997;52.242;8.168;2023-09-18T21:32:33;8.38;;;3.80;;
21671;SDS011;10997;52.242;8.168;2023-09-18T21:37:34;7.07;;;3.70;;
21671;SDS011;10997;52.242;8.168;2023-09-18T21:42:34;7.28;;;3.90;;
21671;SDS011;10997;52.242;8.168;2023-09-18T21:47:35;4.82;;;3.78;;
21671;SDS011;10997;52.242;8.168;2023-09-18T21:52:37;9.52;;;4.93;;
21671;SDS011;10997;52.242;8.168;2023-09-18T21:57:38;9.68;;;4.93;;
21671;SDS011;10997;52.242;8.168;2023-09-18T22:02:39;9.98;;;5.63;;
21671;SDS011;10997;52.242;8.168;2023-09-18T22:07:40;6.95;;;4.90;;
21671;SDS011;10997;52.242;8.168;2023-09-18T22:12:41;7.50;;;5.38;;
21671;SDS011;10997;52.242;8.168;2023-09-18T22:17:41;9.38;;;5.97;;
21671;SDS011;10997;52.242;8.168;2023-09-18T22:22:43;8.23;;;6.07;;
21671;SDS011;10997;52.242;8.168;2023-09-18T22:27:46;9.77;;;6.75;;
21671;SDS011;10997;52.242;8.168;2023-09-18T22:32:48;10.63;;;7.20;;
21671;SDS011;10997;52.242;8.168;2023-09-18T22:37:50;11.48;;;7.28;;
21671;SDS011;10997;52.242;8.168;2023-09-18T22:59:18;12.32;;;9.15;;
21671;SDS011;10997;52.242;8.168;2023-09-18T23:04:19;11.93;;;9.32;;
21671;SDS011;10997;52.242;8.168;2023-09-18T23:09:19;12.43;;;8.27;;
21671;SDS011;10997;52.242;8.168;2023-09-18T23:14:21;11.07;;;7.57;;
21671;SDS011;10997;52.242;8.168;2023-09-18T23:19:23;12.00;;;7.80;;
21671;SDS011;10997;52.242;8.168;2023-09-18T23:24:23;14.98;;;7.75;;
21671;SDS011;10997;52.242;8.168;2023-09-18T23:29:24;13.27;;;8.38;;
21671;SDS011;10997;52.242;8.168;2023-09-18T23:34:26;14.40;;;8.85;;
21671;SDS011;10997;52.242;8.168;2023-09-18T23:39:27;14.05;;;7.75;;
21671;SDS011;10997;52.242;8.168;2023-09-18T23:44:29;14.27;;;7.50;;
21671;SDS011;10997;52.242;8.168;2023-09-18T23:49:31;12.27;;;7.05;;
21671;SDS011;10997;52.242;8.168;2023-09-18T23:54:32;11.60;;;6.82;;
21671;SDS011;10997;52.242;8.168;2023-09-18T23:59:33;13.20;;;6.07;;
